createdAt,value
2018-12-22T00:00:02.426Z,999.62
2018-12-22T00:01:02.436Z,999.61
2018-12-22T00:02:02.470Z,999.60
2018-12-22T00:03:02.480Z,999.71
2018-12-22T00:04:02.439Z,999.61
2018-12-22T00:05:02.486Z,999.65
2018-12-22T00:06:02.366Z,999.65
2018-12-22T00:07:02.461Z,999.64
2018-12-22T00:08:02.483Z,999.72
2018-12-22T00:09:02.532Z,999.67
2018-12-22T00:10:02.484Z,999.67
2018-12-22T00:11:02.470Z,999.69
2018-12-22T00:12:02.735Z,999.73
2018-12-22T00:13:02.555Z,999.71
2018-12-22T00:14:08.475Z,999.71
2018-12-22T00:15:02.473Z,999.72
2018-12-22T00:16:02.516Z,999.77
2018-12-22T00:17:04.473Z,999.71
2018-12-22T00:18:02.479Z,999.73
2018-12-22T00:19:02.471Z,999.74
2018-12-22T00:20:02.481Z,999.74
2018-12-22T00:21:02.532Z,999.78
2018-12-22T00:22:02.890Z,999.83
2018-12-22T00:23:02.473Z,999.80
2018-12-22T00:24:02.473Z,999.85
2018-12-22T00:25:02.511Z,999.82
2018-12-22T00:26:02.518Z,999.84
2018-12-22T00:27:02.482Z,999.81
2018-12-22T00:28:02.508Z,999.83
2018-12-22T00:29:02.567Z,999.81
2018-12-22T00:30:02.843Z,999.88
2018-12-22T00:31:02.535Z,999.88
2018-12-22T00:32:02.433Z,999.82
2018-12-22T00:33:02.476Z,999.84
2018-12-22T00:34:02.441Z,999.81
2018-12-22T00:35:02.573Z,999.87
2018-12-22T00:36:16.516Z,999.82
2018-12-22T00:37:02.385Z,999.83
2018-12-22T00:38:02.486Z,999.82
2018-12-22T00:39:02.489Z,999.84
2018-12-22T00:40:02.477Z,999.82
2018-12-22T00:41:02.436Z,999.84
2018-12-22T00:42:02.576Z,999.78
2018-12-22T00:43:02.569Z,999.82
2018-12-22T00:44:16.578Z,999.79
2018-12-22T00:45:02.482Z,999.75
2018-12-22T00:46:02.449Z,999.81
2018-12-22T00:47:02.489Z,999.83
2018-12-22T00:48:02.480Z,999.81
2018-12-22T00:49:02.900Z,999.81
2018-12-22T00:50:02.566Z,999.78
2018-12-22T00:51:02.455Z,999.77
2018-12-22T00:52:02.478Z,999.80
2018-12-22T00:53:02.548Z,999.84
2018-12-22T00:54:02.481Z,999.86
2018-12-22T00:55:02.487Z,999.84
2018-12-22T00:56:02.479Z,999.80
2018-12-22T00:57:02.947Z,999.81
2018-12-22T00:58:02.017Z,999.82
2018-12-22T00:59:02.694Z,999.83
2018-12-22T01:00:02.433Z,999.82
2018-12-22T01:01:02.430Z,999.82
2018-12-22T01:02:02.566Z,999.85
2018-12-22T01:03:07.855Z,999.85
2018-12-22T01:04:02.511Z,999.87
2018-12-22T01:05:02.453Z,999.87
2018-12-22T01:06:02.049Z,999.86
2018-12-22T01:07:01.921Z,999.85
2018-12-22T01:08:01.951Z,999.86
2018-12-22T01:09:02.030Z,999.85
2018-12-22T01:10:02.492Z,999.84
2018-12-22T01:11:02.366Z,999.85
2018-12-22T01:12:01.957Z,999.86
2018-12-22T01:13:01.976Z,999.92
2018-12-22T01:14:02.339Z,999.84
2018-12-22T01:15:01.976Z,999.88
2018-12-22T01:16:01.967Z,999.85
2018-12-22T01:17:01.909Z,999.85
2018-12-22T01:18:01.899Z,999.87
2018-12-22T01:19:01.889Z,999.87
2018-12-22T01:20:01.993Z,999.83
2018-12-22T01:21:01.995Z,999.81
2018-12-22T01:22:01.960Z,999.81
2018-12-22T01:23:01.974Z,999.83
2018-12-22T01:24:01.889Z,999.81
2018-12-22T01:25:02.405Z,999.90
2018-12-22T01:26:01.399Z,999.81
2018-12-22T01:27:01.904Z,999.86
2018-12-22T01:28:01.847Z,999.82
2018-12-22T01:29:01.770Z,999.85
2018-12-22T01:30:01.917Z,999.82
2018-12-22T01:31:01.604Z,999.86
2018-12-22T01:32:01.876Z,999.84
2018-12-22T01:33:01.835Z,999.80
2018-12-22T01:34:01.938Z,999.85
2018-12-22T01:35:07.972Z,999.85
2018-12-22T01:36:02.031Z,999.82
2018-12-22T01:37:01.959Z,999.93
2018-12-22T01:38:01.949Z,999.92
2018-12-22T01:39:01.969Z,999.87
2018-12-22T01:40:02.050Z,999.90
2018-12-22T01:41:02.022Z,999.88
2018-12-22T01:42:01.989Z,999.91
2018-12-22T01:43:01.988Z,999.90
2018-12-22T01:44:02.011Z,999.88
2018-12-22T01:45:02.043Z,999.90
2018-12-22T01:46:01.836Z,999.87
2018-12-22T01:47:02.010Z,999.87
2018-12-22T01:48:01.977Z,999.89
2018-12-22T01:49:02.244Z,999.90
2018-12-22T01:50:01.972Z,999.84
2018-12-22T01:51:01.976Z,999.88
2018-12-22T01:52:01.966Z,999.88
2018-12-22T01:53:01.876Z,999.80
2018-12-22T01:54:01.991Z,999.85
2018-12-22T01:55:02.000Z,999.86
2018-12-22T01:56:01.908Z,999.84
2018-12-22T01:57:01.993Z,999.85
2018-12-22T01:58:01.933Z,999.82
2018-12-22T01:59:02.068Z,999.86
2018-12-22T02:00:02.060Z,999.82
2018-12-22T02:01:01.939Z,999.84
2018-12-22T02:02:01.862Z,999.87
2018-12-22T02:03:01.902Z,999.82
2018-12-22T02:04:01.989Z,999.82
2018-12-22T02:05:02.011Z,999.81
2018-12-22T02:06:03.996Z,999.81
2018-12-22T02:07:02.005Z,999.79
2018-12-22T02:08:01.994Z,999.78
2018-12-22T02:09:01.961Z,999.70
2018-12-22T02:10:01.844Z,999.78
2018-12-22T02:11:02.019Z,999.86
2018-12-22T02:12:02.017Z,999.81
2018-12-22T02:13:01.979Z,999.81
2018-12-22T02:14:02.014Z,999.82
2018-12-22T02:15:02.021Z,999.85
2018-12-22T02:16:02.054Z,999.81
2018-12-22T02:17:07.981Z,999.83
2018-12-22T02:18:02.023Z,999.85
2018-12-22T02:19:01.987Z,999.85
2018-12-22T02:20:01.994Z,999.87
2018-12-22T02:21:02.024Z,999.81
2018-12-22T02:22:02.055Z,999.87
2018-12-22T02:23:01.385Z,999.81
2018-12-22T02:24:02.032Z,999.83
2018-12-22T02:25:02.056Z,999.82
2018-12-22T02:26:02.057Z,999.81
2018-12-22T02:27:01.497Z,999.80
2018-12-22T02:28:01.449Z,999.81
2018-12-22T02:29:01.511Z,999.81
2018-12-22T02:30:01.536Z,999.81
2018-12-22T02:31:01.454Z,999.78
2018-12-22T02:32:01.462Z,999.76
2018-12-22T02:33:01.888Z,999.75
2018-12-22T02:34:01.783Z,999.78
2018-12-22T02:35:01.497Z,999.78
2018-12-22T02:36:01.499Z,999.72
2018-12-22T02:37:02.016Z,999.71
2018-12-22T02:38:01.837Z,999.70
2018-12-22T02:39:01.519Z,999.60
2018-12-22T02:40:01.773Z,999.64
2018-12-22T02:41:01.440Z,999.66
2018-12-22T02:42:01.450Z,999.59
2018-12-22T02:43:01.481Z,999.63
2018-12-22T02:44:01.471Z,999.59
2018-12-22T02:45:01.528Z,999.67
2018-12-22T02:46:01.495Z,999.66
2018-12-22T02:47:01.556Z,999.65
2018-12-22T02:48:01.520Z,999.70
2018-12-22T02:49:01.520Z,999.65
2018-12-22T02:51:01.534Z,999.62
2018-12-22T02:52:01.407Z,999.63
2018-12-22T02:53:01.503Z,999.64
2018-12-22T02:54:01.475Z,999.59
2018-12-22T02:55:01.500Z,999.63
2018-12-22T02:56:01.546Z,999.60
2018-12-22T02:57:01.494Z,999.63
2018-12-22T02:58:01.550Z,999.59
2018-12-22T02:59:05.862Z,999.60
2018-12-22T03:00:07.516Z,999.55
2018-12-22T03:01:01.531Z,999.57
2018-12-22T03:02:01.460Z,999.56
2018-12-22T03:03:01.457Z,999.60
2018-12-22T03:04:01.512Z,999.60
2018-12-22T03:05:01.481Z,999.51
2018-12-22T03:06:01.419Z,999.52
2018-12-22T03:07:01.476Z,999.54
2018-12-22T03:08:01.397Z,999.48
2018-12-22T03:09:01.517Z,999.44
2018-12-22T03:10:01.553Z,999.40
2018-12-22T03:11:07.498Z,999.45
2018-12-22T03:12:01.477Z,999.39
2018-12-22T03:13:01.496Z,999.41
2018-12-22T03:14:01.558Z,999.40
2018-12-22T03:15:01.525Z,999.34
2018-12-22T03:16:01.515Z,999.35
2018-12-22T03:17:01.533Z,999.31
2018-12-22T03:18:01.528Z,999.26
2018-12-22T03:19:01.569Z,999.25
2018-12-22T03:20:01.560Z,999.26
2018-12-22T03:21:01.533Z,999.22
2018-12-22T03:22:01.575Z,999.21
2018-12-22T03:23:01.533Z,999.16
2018-12-22T03:24:01.539Z,999.10
2018-12-22T03:25:01.564Z,999.13
2018-12-22T03:26:01.462Z,999.11
2018-12-22T03:27:01.559Z,999.09
2018-12-22T03:28:01.596Z,999.11
2018-12-22T03:29:01.517Z,999.11
2018-12-22T03:30:01.497Z,999.04
2018-12-22T03:31:01.571Z,999.01
2018-12-22T03:32:01.757Z,998.98
2018-12-22T03:33:01.515Z,998.96
2018-12-22T03:34:01.542Z,998.95
2018-12-22T03:35:01.617Z,998.89
2018-12-22T03:36:01.598Z,998.87
2018-12-22T03:37:01.616Z,998.85
2018-12-22T03:38:01.586Z,998.82
2018-12-22T03:39:07.507Z,998.83
2018-12-22T03:40:01.557Z,998.85
2018-12-22T03:41:01.753Z,998.82
2018-12-22T03:42:01.600Z,998.84
2018-12-22T03:43:01.544Z,998.82
2018-12-22T03:44:01.509Z,998.80
2018-12-22T03:45:01.565Z,998.80
2018-12-22T03:46:01.582Z,998.73
2018-12-22T03:47:01.587Z,998.73
2018-12-22T03:48:01.430Z,998.75
2018-12-22T03:49:07.513Z,998.73
2018-12-22T03:50:01.442Z,998.69
2018-12-22T03:51:01.304Z,998.69
2018-12-22T03:52:00.928Z,998.66
2018-12-22T03:53:01.003Z,998.63
2018-12-22T03:54:01.029Z,998.64
2018-12-22T03:55:00.964Z,998.59
2018-12-22T03:56:01.087Z,998.61
2018-12-22T03:57:00.960Z,998.58
2018-12-22T03:58:01.015Z,998.59
2018-12-22T03:59:01.508Z,998.55
2018-12-22T04:00:01.010Z,998.56
2018-12-22T04:01:00.997Z,998.54
2018-12-22T04:02:01.333Z,998.52
2018-12-22T04:03:00.917Z,998.53
2018-12-22T04:04:01.031Z,998.57
2018-12-22T04:05:01.489Z,998.58
2018-12-22T04:06:00.993Z,998.58
2018-12-22T04:07:00.944Z,998.58
2018-12-22T04:08:00.987Z,998.58
2018-12-22T04:09:01.436Z,998.60
2018-12-22T04:10:00.731Z,998.59
2018-12-22T04:11:00.694Z,998.59
2018-12-22T04:12:00.394Z,998.63
2018-12-22T04:13:00.828Z,998.61
2018-12-22T04:14:00.401Z,998.58
2018-12-22T04:15:00.822Z,998.64
2018-12-22T04:16:00.774Z,998.62
2018-12-22T04:17:00.723Z,998.65
2018-12-22T04:18:00.740Z,998.65
2018-12-22T04:19:00.774Z,998.70
2018-12-22T04:20:00.821Z,998.70
2018-12-22T04:21:00.754Z,998.76
2018-12-22T04:22:00.836Z,998.80
2018-12-22T04:23:00.887Z,998.84
2018-12-22T04:24:00.782Z,998.80
2018-12-22T04:25:01.164Z,998.74
2018-12-22T04:26:01.016Z,998.79
2018-12-22T04:27:00.882Z,998.77
2018-12-22T04:28:00.816Z,998.76
2018-12-22T04:29:00.821Z,998.73
2018-12-22T04:30:00.795Z,998.72
2018-12-22T04:31:00.867Z,998.70
2018-12-22T04:32:00.777Z,998.74
2018-12-22T04:33:00.871Z,998.74
2018-12-22T04:34:00.732Z,998.75
2018-12-22T04:35:00.913Z,998.76
2018-12-22T04:36:00.813Z,998.73
2018-12-22T04:37:00.730Z,998.68
2018-12-22T04:38:00.769Z,998.70
2018-12-22T04:39:00.910Z,998.69
2018-12-22T04:40:00.682Z,998.67
2018-12-22T04:41:00.744Z,998.66
2018-12-22T04:42:01.128Z,998.64
2018-12-22T04:43:00.975Z,998.68
2018-12-22T04:44:00.932Z,998.67
2018-12-22T04:45:01.044Z,998.70
2018-12-22T04:46:01.058Z,998.64
2018-12-22T04:47:00.366Z,998.68
2018-12-22T04:48:00.971Z,998.64
2018-12-22T04:49:00.833Z,998.69
2018-12-22T04:50:00.853Z,998.63
2018-12-22T04:51:00.264Z,998.59
2018-12-22T04:52:00.279Z,998.58
2018-12-22T04:53:00.823Z,998.59
2018-12-22T04:54:00.889Z,998.61
2018-12-22T04:55:01.015Z,998.62
2018-12-22T04:56:01.055Z,998.54
2018-12-22T04:57:01.004Z,998.51
2018-12-22T04:58:01.080Z,998.52
2018-12-22T04:59:01.122Z,998.48
2018-12-22T05:00:01.068Z,998.48
2018-12-22T05:01:00.264Z,998.46
2018-12-22T05:02:00.803Z,998.48
2018-12-22T05:03:00.987Z,998.46
2018-12-22T05:04:01.035Z,998.45
2018-12-22T05:05:01.089Z,998.34
2018-12-22T05:06:01.098Z,998.28
2018-12-22T05:07:01.046Z,998.27
2018-12-22T05:08:01.194Z,998.27
2018-12-22T05:09:00.455Z,998.30
2018-12-22T05:10:00.514Z,998.21
2018-12-22T05:11:01.025Z,998.17
2018-12-22T05:12:01.061Z,998.21
2018-12-22T05:13:01.118Z,998.16
2018-12-22T05:14:02.578Z,998.23
2018-12-22T05:15:00.849Z,998.25
2018-12-22T05:16:00.476Z,998.28
2018-12-22T05:17:02.582Z,998.26
2018-12-22T05:18:02.549Z,998.29
2018-12-22T05:19:01.007Z,998.32
2018-12-22T05:20:00.799Z,998.35
2018-12-22T05:21:00.476Z,998.33
2018-12-22T05:22:00.828Z,998.32
2018-12-22T05:23:00.478Z,998.29
2018-12-22T05:24:00.531Z,998.32
2018-12-22T05:25:00.499Z,998.22
2018-12-22T05:26:00.378Z,998.20
2018-12-22T05:27:00.464Z,998.17
2018-12-22T05:28:00.480Z,998.21
2018-12-22T05:29:00.487Z,998.15
2018-12-22T05:30:00.550Z,998.12
2018-12-22T05:31:00.770Z,998.17
2018-12-22T05:32:00.631Z,998.22
2018-12-22T05:33:00.573Z,998.23
2018-12-22T05:34:00.484Z,998.24
2018-12-22T05:35:00.496Z,998.20
2018-12-22T05:36:00.492Z,998.20
2018-12-22T05:37:00.539Z,998.19
2018-12-22T05:38:00.551Z,998.10
2018-12-22T05:39:00.773Z,998.14
2018-12-22T05:40:00.518Z,998.24
2018-12-22T05:41:00.497Z,998.06
2018-12-22T05:42:00.591Z,998.00
2018-12-22T05:43:00.546Z,998.06
2018-12-22T05:44:00.799Z,998.06
2018-12-22T05:45:00.488Z,998.12
2018-12-22T05:46:00.533Z,998.10
2018-12-22T05:47:00.539Z,998.08
2018-12-22T05:48:00.501Z,998.03
2018-12-22T05:49:00.493Z,998.10
2018-12-22T05:50:00.532Z,998.13
2018-12-22T05:51:00.572Z,998.14
2018-12-22T05:52:00.534Z,998.13
2018-12-22T05:53:00.564Z,998.16
2018-12-22T05:54:00.958Z,998.15
2018-12-22T05:54:59.955Z,998.18
2018-12-22T05:56:00.405Z,998.21
2018-12-22T05:57:00.228Z,998.21
2018-12-22T05:57:59.714Z,998.22
2018-12-22T05:58:59.758Z,998.26
2018-12-22T06:00:00.920Z,998.20
2018-12-22T06:01:06.842Z,998.27
2018-12-22T06:02:00.587Z,998.21
2018-12-22T06:03:00.481Z,998.11
2018-12-22T06:04:00.503Z,998.23
2018-12-22T06:05:00.630Z,998.25
2018-12-22T06:06:00.686Z,998.18
2018-12-22T06:07:01.083Z,998.13
2018-12-22T06:08:00.391Z,998.23
2018-12-22T06:09:00.008Z,998.20
2018-12-22T06:10:00.631Z,998.12
2018-12-22T06:11:00.552Z,998.14
2018-12-22T06:11:59.775Z,998.12
2018-12-22T06:13:00.333Z,998.12
2018-12-22T06:14:00.270Z,998.24
2018-12-22T06:14:59.653Z,998.27
2018-12-22T06:16:00.360Z,998.22
2018-12-22T06:17:00.556Z,998.15
2018-12-22T06:18:00.505Z,998.20
2018-12-22T06:19:00.557Z,998.34
2018-12-22T06:20:00.580Z,998.27
2018-12-22T06:21:00.544Z,998.29
2018-12-22T06:22:00.918Z,998.43
2018-12-22T06:23:00.460Z,998.37
2018-12-22T06:24:00.345Z,998.46
2018-12-22T06:25:00.335Z,998.42
2018-12-22T06:26:00.497Z,998.47
2018-12-22T06:26:59.731Z,998.53
2018-12-22T06:28:00.595Z,998.49
2018-12-22T06:29:00.556Z,998.53
2018-12-22T06:30:08.789Z,998.62
2018-12-22T06:31:06.298Z,998.52
2018-12-22T06:31:59.162Z,998.66
2018-12-22T06:33:00.185Z,998.70
2018-12-22T06:34:00.504Z,998.76
2018-12-22T06:35:00.223Z,998.74
2018-12-22T06:36:00.162Z,998.80
2018-12-22T06:37:01.917Z,998.79
2018-12-22T06:38:00.256Z,998.76
2018-12-22T06:38:59.944Z,998.81
2018-12-22T06:39:59.679Z,998.88
2018-12-22T06:41:00.161Z,998.85
2018-12-22T06:41:59.933Z,998.90
2018-12-22T06:42:59.833Z,998.86
2018-12-22T06:44:00.088Z,999.00
2018-12-22T06:44:59.975Z,998.97
2018-12-22T06:45:59.741Z,999.07
2018-12-22T06:46:59.977Z,999.08
2018-12-22T06:47:59.949Z,999.14
2018-12-22T06:48:59.915Z,999.15
2018-12-22T06:50:02.029Z,999.16
2018-12-22T06:51:00.144Z,999.13
2018-12-22T06:51:59.680Z,999.23
2018-12-22T06:53:00.061Z,999.24
2018-12-22T06:53:59.994Z,999.33
2018-12-22T06:55:00.086Z,999.35
2018-12-22T06:56:00.090Z,999.37
2018-12-22T06:56:59.502Z,999.37
2018-12-22T06:58:00.035Z,999.49
2018-12-22T06:59:00.008Z,999.51
2018-12-22T07:00:00.173Z,999.50
2018-12-22T07:01:00.052Z,999.48
2018-12-22T07:02:00.001Z,999.52
2018-12-22T07:03:00.047Z,999.54
2018-12-22T07:04:00.061Z,999.61
2018-12-22T07:05:02.064Z,999.62
2018-12-22T07:06:00.063Z,999.62
2018-12-22T07:07:00.054Z,999.63
2018-12-22T07:08:00.013Z,999.71
2018-12-22T07:09:00.048Z,999.72
2018-12-22T07:10:00.265Z,999.74
2018-12-22T07:11:00.087Z,999.74
2018-12-22T07:12:05.678Z,999.80
2018-12-22T07:12:59.906Z,999.78
2018-12-22T07:13:59.786Z,999.85
2018-12-22T07:15:00.054Z,999.95
2018-12-22T07:16:00.499Z,999.91
2018-12-22T07:16:59.541Z,999.94
2018-12-22T07:18:00.047Z,1000.00
2018-12-22T07:18:59.966Z,1000.04
2018-12-22T07:19:59.990Z,1000.01
2018-12-22T07:21:00.016Z,1000.10
2018-12-22T07:22:00.118Z,1000.12
2018-12-22T07:23:00.144Z,1000.19
2018-12-22T07:23:59.904Z,1000.23
2018-12-22T07:25:00.041Z,1000.28
2018-12-22T07:26:00.113Z,1000.32
2018-12-22T07:27:00.116Z,1000.36
2018-12-22T07:28:00.063Z,1000.34
2018-12-22T07:28:59.579Z,1000.38
2018-12-22T07:29:59.956Z,1000.40
2018-12-22T07:31:00.026Z,1000.48
2018-12-22T07:31:59.682Z,1000.52
2018-12-22T07:32:59.311Z,1000.52
2018-12-22T07:33:59.904Z,1000.51
2018-12-22T07:34:58.877Z,1000.60
2018-12-22T07:36:00.443Z,1000.71
2018-12-22T07:36:59.785Z,1000.66
2018-12-22T07:37:59.766Z,1000.77
2018-12-22T07:39:00.484Z,1000.81
2018-12-22T07:39:59.931Z,1000.84
2018-12-22T07:40:59.694Z,1000.85
2018-12-22T07:42:00.078Z,1000.94
2018-12-22T07:43:00.517Z,1000.89
2018-12-22T07:43:59.848Z,1001.07
2018-12-22T07:45:00.114Z,1001.00
2018-12-22T07:46:00.074Z,1001.06
2018-12-22T07:47:00.049Z,1001.01
2018-12-22T07:48:00.053Z,1001.13
2018-12-22T07:49:00.074Z,1001.02
2018-12-22T07:49:59.562Z,1001.18
2018-12-22T07:51:00.036Z,1001.16
2018-12-22T07:52:00.154Z,1001.22
2018-12-22T07:53:00.109Z,1001.20
2018-12-22T07:54:00.116Z,1001.26
2018-12-22T07:55:00.149Z,1001.27
2018-12-22T07:55:59.499Z,1001.37
2018-12-22T07:57:00.092Z,1001.30
2018-12-22T07:58:00.127Z,1001.38
2018-12-22T07:58:59.123Z,1001.42
2018-12-22T08:00:00.158Z,1001.42
2018-12-22T08:00:59.573Z,1001.47
2018-12-22T08:01:59.960Z,1001.51
2018-12-22T08:02:59.549Z,1001.58
2018-12-22T08:03:59.266Z,1001.65
2018-12-22T08:04:59.365Z,1001.62
2018-12-22T08:05:59.630Z,1001.70
2018-12-22T08:07:00.167Z,1001.74
2018-12-22T08:08:00.040Z,1001.74
2018-12-22T08:09:00.262Z,1001.73
2018-12-22T08:10:01.570Z,1001.78
2018-12-22T08:11:01.587Z,1001.82
2018-12-22T08:12:02.041Z,1001.83
2018-12-22T08:13:59.938Z,1001.85
2018-12-22T08:15:00.012Z,1001.86
2018-12-22T08:15:59.421Z,1001.92
2018-12-22T08:16:58.979Z,1001.89
2018-12-22T08:17:59.335Z,1001.93
2018-12-22T08:18:59.573Z,1001.98
2018-12-22T08:19:59.552Z,1002.01
2018-12-22T08:20:59.605Z,1002.01
2018-12-22T08:21:59.626Z,1002.05
2018-12-22T08:22:59.001Z,1002.04
2018-12-22T08:23:59.507Z,1002.10
2018-12-22T08:24:59.051Z,1002.10
2018-12-22T08:25:59.573Z,1002.11
2018-12-22T08:26:59.554Z,1002.18
2018-12-22T08:27:59.585Z,1002.21
2018-12-22T08:28:59.584Z,1002.24
2018-12-22T08:29:59.578Z,1002.25
2018-12-22T08:30:59.442Z,1002.29
2018-12-22T08:31:59.651Z,1002.30
2018-12-22T08:32:59.532Z,1002.28
2018-12-22T08:34:00.014Z,1002.32
2018-12-22T08:34:59.486Z,1002.31
2018-12-22T08:35:59.322Z,1002.39
2018-12-22T08:36:59.509Z,1002.41
2018-12-22T08:37:59.266Z,1002.43
2018-12-22T08:38:59.369Z,1002.45
2018-12-22T08:40:26.652Z,1002.47
2018-12-22T08:40:59.344Z,1002.56
2018-12-22T08:42:05.253Z,1002.55
2018-12-22T08:42:59.595Z,1002.57
2018-12-22T08:43:59.562Z,1002.69
2018-12-22T08:45:00.042Z,1002.67
2018-12-22T08:45:59.989Z,1002.80
2018-12-22T08:46:59.043Z,1002.89
2018-12-22T08:47:59.621Z,1002.82
2018-12-22T08:48:59.658Z,1002.88
2018-12-22T08:50:21.028Z,1002.91
2018-12-22T08:50:58.957Z,1002.93
2018-12-22T08:51:59.306Z,1002.98
2018-12-22T08:52:59.675Z,1003.03
2018-12-22T08:53:59.112Z,1003.01
2018-12-22T08:54:59.523Z,1003.09
2018-12-22T08:55:59.566Z,1003.13
2018-12-22T08:56:59.100Z,1003.14
2018-12-22T08:58:20.060Z,1003.25
2018-12-22T08:58:59.975Z,1003.17
2018-12-22T08:59:59.290Z,1003.23
2018-12-22T09:00:59.605Z,1003.27
2018-12-22T09:01:59.077Z,1003.29
2018-12-22T09:02:59.505Z,1003.35
2018-12-22T09:03:59.661Z,1003.30
2018-12-22T09:04:58.957Z,1003.34
2018-12-22T09:05:59.163Z,1003.39
2018-12-22T09:08:32.675Z,1003.41
2018-12-22T09:09:32.706Z,1003.42
2018-12-22T09:11:26.667Z,1003.48
2018-12-22T09:12:27.022Z,1003.60
2018-12-22T09:13:27.520Z,1003.52
2018-12-22T09:14:26.987Z,1003.59
2018-12-22T09:15:27.500Z,1003.60
2018-12-22T09:16:26.507Z,1003.66
2018-12-22T09:17:26.985Z,1003.63
2018-12-22T09:18:27.640Z,1003.64
2018-12-22T09:19:27.275Z,1003.68
2018-12-22T09:20:27.515Z,1003.70
2018-12-22T09:21:27.650Z,1003.74
2018-12-22T09:22:27.483Z,1003.76
2018-12-22T09:23:27.499Z,1003.82
2018-12-22T09:24:27.464Z,1003.82
2018-12-22T09:25:27.466Z,1003.86
2018-12-22T09:26:27.498Z,1003.91
2018-12-22T09:27:27.501Z,1003.90
2018-12-22T09:28:27.554Z,1003.86
2018-12-22T09:29:27.955Z,1003.94
2018-12-22T09:30:27.169Z,1003.95
2018-12-22T09:31:27.596Z,1004.00
2018-12-22T09:32:27.589Z,1004.02
2018-12-22T09:33:27.924Z,1004.05
2018-12-22T09:34:27.319Z,1004.12
2018-12-22T09:35:27.157Z,1004.09
2018-12-22T09:36:27.576Z,1004.19
2018-12-22T09:37:27.904Z,1004.12
2018-12-22T09:38:27.502Z,1004.20
2018-12-22T09:39:27.503Z,1004.20
2018-12-22T09:40:27.501Z,1004.24
2018-12-22T09:41:33.976Z,1004.26
2018-12-22T09:42:27.138Z,1004.23
2018-12-22T09:43:27.526Z,1004.31
2018-12-22T09:44:27.919Z,1004.27
2018-12-22T09:45:27.028Z,1004.30
2018-12-22T09:47:27.066Z,1004.38
2018-12-22T09:48:27.542Z,1004.36
2018-12-22T09:49:27.957Z,1004.37
2018-12-22T09:50:26.953Z,1004.34
2018-12-22T09:51:26.933Z,1004.41
2018-12-22T09:52:33.380Z,1004.42
2018-12-22T09:53:26.754Z,1004.41
2018-12-22T09:54:26.957Z,1004.43
2018-12-22T09:55:26.978Z,1004.41
2018-12-22T09:56:27.431Z,1004.40
2018-12-22T09:57:26.954Z,1004.39
2018-12-22T09:58:26.994Z,1004.42
2018-12-22T09:59:27.254Z,1004.39
2018-12-22T10:00:26.678Z,1004.45
2018-12-22T10:01:26.541Z,1004.46
2018-12-22T10:02:25.956Z,1004.43
2018-12-22T10:03:26.392Z,1004.49
2018-12-22T10:04:29.378Z,1004.46
2018-12-22T10:05:27.085Z,1004.43
2018-12-22T10:06:27.252Z,1004.47
2018-12-22T10:07:26.662Z,1004.54
2018-12-22T10:08:27.067Z,1004.56
2018-12-22T10:09:27.034Z,1004.53
2018-12-22T10:10:27.607Z,1004.60
2018-12-22T10:11:27.155Z,1004.57
2018-12-22T10:12:27.665Z,1004.56
2018-12-22T10:13:26.860Z,1004.55
2018-12-22T10:14:27.038Z,1004.58
2018-12-22T10:15:26.943Z,1004.61
2018-12-22T10:16:27.453Z,1004.60
2018-12-22T10:17:27.070Z,1004.65
2018-12-22T10:18:27.313Z,1004.63
2018-12-22T10:19:26.909Z,1004.66
2018-12-22T10:20:26.752Z,1004.68
2018-12-22T10:21:27.433Z,1004.68
2018-12-22T10:22:27.425Z,1004.71
2018-12-22T10:23:26.472Z,1004.67
2018-12-22T10:24:27.018Z,1004.65
2018-12-22T10:25:27.125Z,1004.66
2018-12-22T10:26:27.025Z,1004.66
2018-12-22T10:27:27.049Z,1004.68
2018-12-22T10:28:26.922Z,1004.62
2018-12-22T10:29:27.033Z,1004.65
2018-12-22T10:30:27.005Z,1004.58
2018-12-22T10:31:27.284Z,1004.66
2018-12-22T10:32:27.042Z,1004.69
2018-12-22T10:33:33.968Z,1004.69
2018-12-22T10:34:27.046Z,1004.71
2018-12-22T10:35:27.053Z,1004.72
2018-12-22T10:37:27.466Z,1004.66
2018-12-22T10:38:27.128Z,1004.67
2018-12-22T10:39:27.416Z,1004.67
2018-12-22T10:40:26.763Z,1004.69
2018-12-22T10:41:26.646Z,1004.72
2018-12-22T10:42:26.217Z,1004.75
2018-12-22T10:43:26.730Z,1004.80
2018-12-22T10:44:26.846Z,1004.83
2018-12-22T10:45:29.474Z,1004.81
2018-12-22T10:46:29.469Z,1004.87
2018-12-22T10:47:27.302Z,1004.85
2018-12-22T10:48:27.435Z,1004.85
2018-12-22T10:49:27.028Z,1004.89
2018-12-22T10:50:27.038Z,1004.92
2018-12-22T10:52:59.863Z,1004.97
2018-12-22T10:54:00.227Z,1004.97
2018-12-22T10:55:54.356Z,1004.92
2018-12-22T10:56:55.073Z,1005.03
2018-12-22T10:58:49.098Z,1004.97
2018-12-22T10:59:50.071Z,1005.10
2018-12-22T11:01:44.188Z,1005.03
2018-12-22T11:02:43.794Z,1005.01
2018-12-22T11:04:39.016Z,1005.03
2018-12-22T11:05:38.593Z,1005.02
2018-12-22T11:07:32.722Z,1004.93
2018-12-22T11:08:33.077Z,1004.91
2018-12-22T11:10:28.123Z,1004.98
2018-12-22T11:11:28.327Z,1004.96
2018-12-22T11:13:22.416Z,1005.05
2018-12-22T11:14:22.591Z,1005.00
2018-12-22T11:16:17.553Z,1005.05
2018-12-22T11:17:17.999Z,1005.09
2018-12-22T11:19:11.380Z,1005.13
2018-12-22T11:20:11.828Z,1005.07
2018-12-22T11:22:05.878Z,1005.07
2018-12-22T11:23:06.591Z,1005.12
2018-12-22T11:25:00.499Z,1005.13
2018-12-22T11:26:01.941Z,1005.10
2018-12-22T11:27:56.118Z,1005.16
2018-12-22T11:28:54.994Z,1005.10
2018-12-22T11:30:50.463Z,1005.17
2018-12-22T11:31:50.115Z,1005.20
2018-12-22T11:33:45.267Z,1005.19
2018-12-22T11:34:45.446Z,1005.22
2018-12-22T11:36:39.438Z,1005.35
2018-12-22T11:38:53.993Z,1005.35
2018-12-22T11:39:54.083Z,1005.24
2018-12-22T11:41:48.922Z,1005.35
2018-12-22T11:42:49.403Z,1005.27
2018-12-22T11:43:48.949Z,1005.28
2018-12-22T11:44:48.993Z,1005.26
2018-12-22T11:45:49.915Z,1005.30
2018-12-22T11:46:49.874Z,1005.43
2018-12-22T11:47:49.365Z,1005.47
2018-12-22T11:48:49.267Z,1005.41
2018-12-22T11:49:49.872Z,1005.47
2018-12-22T11:50:49.442Z,1005.56
2018-12-22T11:51:49.492Z,1005.49
2018-12-22T11:52:49.573Z,1005.46
2018-12-22T11:53:49.744Z,1005.52
2018-12-22T11:55:49.189Z,1005.46
2018-12-22T11:56:49.225Z,1005.43
2018-12-22T11:57:48.568Z,1005.34
2018-12-22T11:58:49.144Z,1005.35
2018-12-22T11:59:49.257Z,1005.37
2018-12-22T12:00:49.473Z,1005.42
2018-12-22T12:01:49.364Z,1005.40
2018-12-22T12:02:48.532Z,1005.39
2018-12-22T12:03:49.204Z,1005.38
2018-12-22T12:04:49.523Z,1005.45
2018-12-22T12:05:49.478Z,1005.46
2018-12-22T12:06:49.879Z,1005.30
2018-12-22T12:07:49.499Z,1005.44
2018-12-22T12:08:49.413Z,1005.43
2018-12-22T12:09:49.428Z,1005.39
2018-12-22T12:10:49.157Z,1005.43
2018-12-22T12:11:49.486Z,1005.43
2018-12-22T12:12:49.383Z,1005.40
2018-12-22T12:13:49.544Z,1005.42
2018-12-22T12:14:48.576Z,1005.44
2018-12-22T12:15:49.423Z,1005.46
2018-12-22T12:16:49.416Z,1005.47
2018-12-22T12:17:49.385Z,1005.47
2018-12-22T12:18:49.119Z,1005.48
2018-12-22T12:19:49.880Z,1005.52
2018-12-22T12:20:49.918Z,1005.41
2018-12-22T12:21:49.275Z,1005.43
2018-12-22T12:22:49.460Z,1005.43
2018-12-22T12:23:48.754Z,1005.47
2018-12-22T12:24:49.921Z,1005.39
2018-12-22T12:25:49.279Z,1005.42
2018-12-22T12:26:48.850Z,1005.42
2018-12-22T12:27:50.629Z,1005.41
2018-12-22T12:28:48.521Z,1005.44
2018-12-22T12:29:51.042Z,1005.49
2018-12-22T12:30:50.977Z,1005.53
2018-12-22T12:31:52.105Z,1005.58
2018-12-22T12:32:49.253Z,1005.61
2018-12-22T12:33:49.554Z,1005.58
2018-12-22T12:34:48.402Z,1005.63
2018-12-22T12:35:54.677Z,1005.65
2018-12-22T12:36:48.915Z,1005.68
2018-12-22T12:37:49.558Z,1005.67
2018-12-22T12:38:48.927Z,1005.69
2018-12-22T12:39:49.224Z,1005.66
2018-12-22T12:40:49.066Z,1005.68
2018-12-22T12:41:49.009Z,1005.67
2018-12-22T12:42:49.404Z,1005.73
2018-12-22T12:43:48.671Z,1005.72